sensor_id;sensor_type;location;lat;lon;timestamp;pressure;altitude;pressure_sealevel;temperature;humidity
18509;BME280;9383;50.928;12.116;2023-02-13T00:02:26;101002.66;;;5.66;100.00
18509;BME280;9383;50.928;12.116;2023-02-13T00:04:52;101005.25;;;5.64;100.00
18509;BME280;9383;50.928;12.116;2023-02-13T00:07:19;100995.63;;;5.65;100.00
18509;BME280;9383;50.928;12.116;2023-02-13T00:09:46;100997.34;;;5.64;100.00
18509;BME280;9383;50.928;12.116;2023-02-13T00:12:13;100990.28;;;5.61;100.00
18509;BME280;9383;50.928;12.116;2023-02-13T00:14:40;100992.91;;;5.61;100.00
18509;BME280;9383;50.928;12.116;2023-02-13T00:17:07;100991.13;;;5.60;100.00
18509;BME280;9383;50.928;12.116;2023-02-13T00:19:33;100992.03;;;5.61;100.00
18509;BME280;9383;50.928;12.116;2023-02-13T00:22:00;100985.00;;;5.60;100.00
18509;BME280;9383;50.928;12.116;2023-02-13T00:24:26;100979.69;;;5.58;100.00
18509;BME280;9383;50.928;12.116;2023-02-13T00:26:53;100984.97;;;5.57;100.00
18509;BME280;9383;50.928;12.116;2023-02-13T00:29:19;100986.69;;;5.56;100.00
18509;BME280;9383;50.928;12.116;2023-02-13T00:31:46;100981.38;;;5.55;100.00
18509;BME280;9383;50.928;12.116;2023-02-13T00:34:13;100985.78;;;5.56;100.00
18509;BME280;9383;50.928;12.116;2023-02-13T00:36:39;100981.38;;;5.55;100.00
18509;BME280;9383;50.928;12.116;2023-02-13T00:39:06;100977.84;;;5.53;100.00
18509;BME280;9383;50.928;12.116;2023-02-13T00:41:32;100976.06;;;5.52;100.00
18509;BME280;9383;50.928;12.116;2023-02-13T00:43:59;100978.69;;;5.52;100.00
18509;BME280;9383;50.928;12.116;2023-02-13T00:46:25;100983.91;;;5.48;100.00
18509;BME280;9383;50.928;12.116;2023-02-13T00:48:52;100986.50;;;5.47;100.00
18509;BME280;9383;50.928;12.116;2023-02-13T00:51:18;100984.72;;;5.46;100.00
18509;BME280;9383;50.928;12.116;2023-02-13T00:53:45;100983.88;;;5.45;100.00
18509;BME280;9383;50.928;12.116;2023-02-13T00:56:11;100987.34;;;5.44;100.00
18509;BME280;9383;50.928;12.116;2023-02-13T00:58:38;100990.00;;;5.44;100.00
18509;BME280;9383;50.928;12.116;2023-02-13T01:01:04;100990.81;;;5.42;100.00
18509;BME280;9383;50.928;12.116;2023-02-13T01:03:32;100984.66;;;5.41;100.00
18509;BME280;9383;50.928;12.116;2023-02-13T01:05:58;100981.16;;;5.41;100.00
18509;BME280;9383;50.928;12.116;2023-02-13T01:08:25;100984.63;;;5.40;100.00
18509;BME280;9383;50.928;12.116;2023-02-13T01:10:54;100983.72;;;5.39;100.00
18509;BME280;9383;50.928;12.116;2023-02-13T01:13:20;100987.22;;;5.38;100.00
18509;BME280;9383;50.928;12.116;2023-02-13T01:15:48;100992.44;;;5.37;100.00
18509;BME280;9383;50.928;12.116;2023-02-13T01:18:16;100988.03;;;5.35;100.00
18509;BME280;9383;50.928;12.116;2023-02-13T01:20:44;100988.03;;;5.34;100.00
18509;BME280;9383;50.928;12.116;2023-02-13T01:23:22;100986.25;;;5.33;100.00
18509;BME280;9383;50.928;12.116;2023-02-13T01:25:49;100988.88;;;5.33;100.00
18509;BME280;9383;50.928;12.116;2023-02-13T01:28:18;100978.31;;;5.31;100.00
18509;BME280;9383;50.928;12.116;2023-02-13T01:30:44;100980.97;;;5.31;100.00
18509;BME280;9383;50.928;12.116;2023-02-13T01:33:11;100976.56;;;5.30;100.00
18509;BME280;9383;50.928;12.116;2023-02-13T01:35:38;100976.50;;;5.29;100.00
18509;BME280;9383;50.928;12.116;2023-02-13T01:38:05;100977.38;;;5.26;100.00
18509;BME280;9383;50.928;12.116;2023-02-13T01:40:32;100984.31;;;5.24;100.00
18509;BME280;9383;50.928;12.116;2023-02-13T01:42:59;100984.28;;;5.23;100.00
18509;BME280;9383;50.928;12.116;2023-02-13T01:45:30;100978.13;;;5.22;100.00
18509;BME280;9383;50.928;12.116;2023-02-13T01:47:58;100974.63;;;5.21;100.00
18509;BME280;9383;50.928;12.116;2023-02-13T01:50:36;100971.97;;;5.20;100.00
18509;BME280;9383;50.928;12.116;2023-02-13T01:53:12;100972.81;;;5.19;100.00
18509;BME280;9383;50.928;12.116;2023-02-13T01:56:27;100971.09;;;5.19;100.00
18509;BME280;9383;50.928;12.116;2023-02-13T01:58:47;100972.88;;;5.20;100.00
18509;BME280;9383;50.928;12.116;2023-02-13T02:01:15;100964.06;;;5.20;100.00
18509;BME280;9383;50.928;12.116;2023-02-13T02:03:52;100964.97;;;5.20;100.00
18509;BME280;9383;50.928;12.116;2023-02-13T02:06:27;100960.56;;;5.19;100.00
18509;BME280;9383;50.928;12.116;2023-02-13T02:08:56;100952.69;;;5.21;100.00
18509;BME280;9383;50.928;12.116;2023-02-13T02:11:35;100956.22;;;5.21;100.00
18509;BME280;9383;50.928;12.116;2023-02-13T02:14:03;100958.88;;;5.23;100.00
18509;BME280;9383;50.928;12.116;2023-02-13T02:16:49;100950.09;;;5.23;100.00
18509;BME280;9383;50.928;12.116;2023-02-13T02:19:48;100954.50;;;5.24;100.00
18509;BME280;9383;50.928;12.116;2023-02-13T02:30:48;100953.66;;;5.25;100.00
18509;BME280;9383;50.928;12.116;2023-02-13T02:36:34;100960.72;;;5.27;100.00
18509;BME280;9383;50.928;12.116;2023-02-13T02:39:27;100955.47;;;5.27;100.00
18509;BME280;9383;50.928;12.116;2023-02-13T02:52:54;100938.81;;;5.28;100.00
18509;BME280;9383;50.928;12.116;2023-02-13T02:55:49;100939.69;;;5.29;100.00
18509;BME280;9383;50.928;12.116;2023-02-13T02:58:19;100934.44;;;5.27;100.00
18509;BME280;9383;50.928;12.116;2023-02-13T03:01:09;100940.56;;;5.28;100.00
18509;BME280;9383;50.928;12.116;2023-02-13T03:03:56;100933.56;;;5.28;100.00
18509;BME280;9383;50.928;12.116;2023-02-13T03:06:55;100928.25;;;5.27;100.00
18509;BME280;9383;50.928;12.116;2023-02-13T03:09:30;100923.88;;;5.26;100.00
18509;BME280;9383;50.928;12.116;2023-02-13T03:12:22;100930.88;;;5.25;100.00
18509;BME280;9383;50.928;12.116;2023-02-13T03:15:08;100918.56;;;5.24;100.00
18509;BME280;9383;50.928;12.116;2023-02-13T03:17:35;100926.44;;;5.24;100.00
18509;BME280;9383;50.928;12.116;2023-02-13T03:23:46;100938.69;;;5.22;100.00
18509;BME280;9383;50.928;12.116;2023-02-13T03:26:41;100940.44;;;5.21;100.00
18509;BME280;9383;50.928;12.116;2023-02-13T03:35:11;100943.00;;;5.17;100.00
18509;BME280;9383;50.928;12.116;2023-02-13T03:38:26;100942.09;;;5.16;100.00
18509;BME280;9383;50.928;12.116;2023-02-13T03:41:37;100943.84;;;5.17;100.00
18509;BME280;9383;50.928;12.116;2023-02-13T03:44:14;100951.75;;;5.17;100.00
18509;BME280;9383;50.928;12.116;2023-02-13T03:46:46;100950.91;;;5.18;100.00
18509;BME280;9383;50.928;12.116;2023-02-13T03:49:22;100962.25;;;5.17;100.00
18509;BME280;9383;50.928;12.116;2023-02-13T03:54:51;100957.00;;;5.16;100.00
18509;BME280;9383;50.928;12.116;2023-02-13T03:57:40;100956.09;;;5.15;100.00
18509;BME280;9383;50.928;12.116;2023-02-13T04:00:32;100961.41;;;5.17;100.00
18509;BME280;9383;50.928;12.116;2023-02-13T04:05:45;100959.63;;;5.17;100.00
18509;BME280;9383;50.928;12.116;2023-02-13T04:08:13;100959.63;;;5.17;100.00
18509;BME280;9383;50.928;12.116;2023-02-13T04:10:55;100964.91;;;5.17;100.00
18509;BME280;9383;50.928;12.116;2023-02-13T04:13:33;100964.91;;;5.17;100.00
18509;BME280;9383;50.928;12.116;2023-02-13T04:16:20;100962.25;;;5.17;100.00
18509;BME280;9383;50.928;12.116;2023-02-13T04:18:48;100957.91;;;5.18;100.00
18509;BME280;9383;50.928;12.116;2023-02-13T04:21:17;100953.50;;;5.17;100.00
18509;BME280;9383;50.928;12.116;2023-02-13T04:23:43;100954.38;;;5.17;100.00
18509;BME280;9383;50.928;12.116;2023-02-13T04:26:16;100955.22;;;5.16;100.00
18509;BME280;9383;50.928;12.116;2023-02-13T04:28:43;100952.59;;;5.16;100.00
18509;BME280;9383;50.928;12.116;2023-02-13T04:31:10;100962.25;;;5.16;100.00
18509;BME280;9383;50.928;12.116;2023-02-13T04:33:36;100957.84;;;5.15;100.00
18509;BME280;9383;50.928;12.116;2023-02-13T04:36:03;100948.16;;;5.12;100.00
18509;BME280;9383;50.928;12.116;2023-02-13T04:38:30;100956.91;;;5.11;100.00
18509;BME280;9383;50.928;12.116;2023-02-13T04:40:57;100956.00;;;5.11;100.00
18509;BME280;9383;50.928;12.116;2023-02-13T04:43:23;100955.13;;;5.10;100.00
18509;BME280;9383;50.928;12.116;2023-02-13T04:45:51;100952.44;;;5.09;100.00
18509;BME280;9383;50.928;12.116;2023-02-13T04:48:17;100949.81;;;5.07;100.00
18509;BME280;9383;50.928;12.116;2023-02-13T04:50:44;100948.03;;;5.06;100.00
18509;BME280;9383;50.928;12.116;2023-02-13T04:53:10;100946.25;;;5.05;100.00
18509;BME280;9383;50.928;12.116;2023-02-13T04:55:37;100942.69;;;5.03;100.00
18509;BME280;9383;50.928;12.116;2023-02-13T04:58:03;100950.56;;;5.01;100.00
18509;BME280;9383;50.928;12.116;2023-02-13T05:00:30;100947.03;;;5.01;100.00
18509;BME280;9383;50.928;12.116;2023-02-13T05:03:04;100949.69;;;5.01;100.00
18509;BME280;9383;50.928;12.116;2023-02-13T05:05:32;100947.91;;;5.00;100.00
18509;BME280;9383;50.928;12.116;2023-02-13T05:07:58;100946.13;;;4.99;100.00
18509;BME280;9383;50.928;12.116;2023-02-13T05:10:25;100950.50;;;4.98;100.00
18509;BME280;9383;50.928;12.116;2023-02-13T05:12:51;100955.72;;;4.97;100.00
18509;BME280;9383;50.928;12.116;2023-02-13T05:15:18;100960.13;;;4.98;100.00
18509;BME280;9383;50.928;12.116;2023-02-13T05:17:45;100961.00;;;4.97;100.00
18509;BME280;9383;50.928;12.116;2023-02-13T05:20:13;100953.88;;;4.92;100.00
18509;BME280;9383;50.928;12.116;2023-02-13T05:22:46;100950.28;;;4.87;100.00
18509;BME280;9383;50.928;12.116;2023-02-13T05:25:32;100950.16;;;4.81;100.00
18509;BME280;9383;50.928;12.116;2023-02-13T05:27:58;100952.81;;;4.83;100.00
18509;BME280;9383;50.928;12.116;2023-02-13T05:30:25;100951.03;;;4.82;100.00
18509;BME280;9383;50.928;12.116;2023-02-13T05:32:52;100951.88;;;4.81;100.00
18509;BME280;9383;50.928;12.116;2023-02-13T05:35:21;100958.88;;;4.80;100.00
18509;BME280;9383;50.928;12.116;2023-02-13T05:37:47;100954.41;;;4.76;100.00
18509;BME280;9383;50.928;12.116;2023-02-13T05:40:14;100963.97;;;4.72;100.00
18509;BME280;9383;50.928;12.116;2023-02-13T05:42:41;100962.19;;;4.71;100.00
18509;BME280;9383;50.928;12.116;2023-02-13T05:45:09;100955.16;;;4.69;100.00
18509;BME280;9383;50.928;12.116;2023-02-13T05:47:36;100955.16;;;4.69;100.00
18509;BME280;9383;50.928;12.116;2023-02-13T05:50:03;100960.31;;;4.65;100.00
18509;BME280;9383;50.928;12.116;2023-02-13T05:52:36;100959.38;;;4.62;100.00
18509;BME280;9383;50.928;12.116;2023-02-13T05:55:02;100961.91;;;4.59;100.00
18509;BME280;9383;50.928;12.116;2023-02-13T05:57:29;100968.88;;;4.55;100.00
18509;BME280;9383;50.928;12.116;2023-02-13T05:59:55;100922.78;;;4.30;100.00
18509;BME280;9383;50.928;12.116;2023-02-13T06:02:23;100958.28;;;4.52;100.00
18509;BME280;9383;50.928;12.116;2023-02-13T06:04:52;100970.38;;;4.45;100.00
18509;BME280;9383;50.928;12.116;2023-02-13T06:07:20;100967.59;;;4.38;100.00
18509;BME280;9383;50.928;12.116;2023-02-13T06:09:46;100967.63;;;4.39;100.00
18509;BME280;9383;50.928;12.116;2023-02-13T06:12:13;100973.72;;;4.38;100.00
18509;BME280;9383;50.928;12.116;2023-02-13T06:14:39;100979.00;;;4.38;100.00
18509;BME280;9383;50.928;12.116;2023-02-13T06:17:06;100984.13;;;4.33;100.00
18509;BME280;9383;50.928;12.116;2023-02-13T06:19:32;100985.84;;;4.31;100.00
18509;BME280;9383;50.928;12.116;2023-02-13T06:21:59;100980.59;;;4.31;100.00
18509;BME280;9383;50.928;12.116;2023-02-13T06:24:26;100987.44;;;4.26;100.00
18509;BME280;9383;50.928;12.116;2023-02-13T06:26:52;100990.00;;;4.23;100.00
18509;BME280;9383;50.928;12.116;2023-02-13T06:29:19;100996.97;;;4.21;100.00
18509;BME280;9383;50.928;12.116;2023-02-13T06:31:47;100996.78;;;4.15;100.00
18509;BME280;9383;50.928;12.116;2023-02-13T06:34:17;100997.69;;;4.15;100.00
18509;BME280;9383;50.928;12.116;2023-02-13T06:36:45;100988.91;;;4.15;100.00
18509;BME280;9383;50.928;12.116;2023-02-13T06:39:13;100988.03;;;4.14;100.00
18509;BME280;9383;50.928;12.116;2023-02-13T06:41:45;100993.13;;;4.08;100.00
18509;BME280;9383;50.928;12.116;2023-02-13T06:44:12;100998.44;;;4.10;100.00
18509;BME280;9383;50.928;12.116;2023-02-13T06:46:38;100993.97;;;4.05;100.00
18509;BME280;9383;50.928;12.116;2023-02-13T06:49:05;100996.50;;;4.02;100.00
18509;BME280;9383;50.928;12.116;2023-02-13T06:51:31;100995.69;;;4.05;100.00
18509;BME280;9383;50.928;12.116;2023-02-13T06:53:58;100999.97;;;4.01;100.00
18509;BME280;9383;50.928;12.116;2023-02-13T06:56:24;101004.34;;;4.01;100.00
18509;BME280;9383;50.928;12.116;2023-02-13T06:58:57;100999.03;;;3.99;100.00
18509;BME280;9383;50.928;12.116;2023-02-13T07:01:24;101004.28;;;3.99;100.00
18509;BME280;9383;50.928;12.116;2023-02-13T07:03:56;100993.78;;;3.99;100.00
18509;BME280;9383;50.928;12.116;2023-02-13T07:06:36;100996.34;;;3.96;100.00
18509;BME280;9383;50.928;12.116;2023-02-13T07:09:05;100996.16;;;3.90;100.00
18509;BME280;9383;50.928;12.116;2023-02-13T07:11:46;100998.72;;;3.87;100.00
18509;BME280;9383;50.928;12.116;2023-02-13T07:14:14;100999.50;;;3.83;100.00
18509;BME280;9383;50.928;12.116;2023-02-13T07:16:40;101000.31;;;3.80;100.00
18509;BME280;9383;50.928;12.116;2023-02-13T07:19:07;101005.47;;;3.77;100.00
18509;BME280;9383;50.928;12.116;2023-02-13T07:21:34;100998.28;;;3.70;100.00
18509;BME280;9383;50.928;12.116;2023-02-13T07:24:01;100929.13;;;3.32;100.00
18509;BME280;9383;50.928;12.116;2023-02-13T07:26:35;101007.84;;;3.68;100.00
18509;BME280;9383;50.928;12.116;2023-02-13T07:29:01;100999.97;;;3.68;100.00
18509;BME280;9383;50.928;12.116;2023-02-13T07:31:33;101004.19;;;3.61;100.00
18509;BME280;9383;50.928;12.116;2023-02-13T07:33:59;100999.72;;;3.58;100.00
18509;BME280;9383;50.928;12.116;2023-02-13T07:36:27;101006.47;;;3.48;100.00
18509;BME280;9383;50.928;12.116;2023-02-13T07:38:53;101010.94;;;3.52;100.00
18509;BME280;9383;50.928;12.116;2023-02-13T07:41:20;101007.44;;;3.52;100.00
18509;BME280;9383;50.928;12.116;2023-02-13T07:43:50;101014.47;;;3.53;100.00
18509;BME280;9383;50.928;12.116;2023-02-13T07:46:19;101008.81;;;3.39;100.00
18509;BME280;9383;50.928;12.116;2023-02-13T07:48:51;101009.66;;;3.38;100.00
18509;BME280;9383;50.928;12.116;2023-02-13T07:51:18;101004.28;;;3.33;100.00
18509;BME280;9383;50.928;12.116;2023-02-13T07:53:44;101009.31;;;3.24;100.00
18509;BME280;9383;50.928;12.116;2023-02-13T07:56:16;101011.16;;;3.28;100.00
18509;BME280;9383;50.928;12.116;2023-02-13T07:58:47;101017.38;;;3.32;100.00
18509;BME280;9383;50.928;12.116;2023-02-13T08:01:20;101024.31;;;3.30;100.00
18509;BME280;9383;50.928;12.116;2023-02-13T08:03:57;101022.44;;;3.26;100.00
18509;BME280;9383;50.928;12.116;2023-02-13T08:06:26;101026.81;;;3.25;100.00
18509;BME280;9383;50.928;12.116;2023-02-13T08:09:18;101028.44;;;3.21;100.00
18509;BME280;9383;50.928;12.116;2023-02-13T08:12:07;101030.06;;;3.18;100.00
18509;BME280;9383;50.928;12.116;2023-02-13T08:14:34;101037.81;;;3.13;100.00
18509;BME280;9383;50.928;12.116;2023-02-13T08:17:01;101034.16;;;3.08;100.00
18509;BME280;9383;50.928;12.116;2023-02-13T08:19:27;101034.94;;;3.04;100.00
18509;BME280;9383;50.928;12.116;2023-02-13T08:21:54;101036.56;;;3.00;100.00
18509;BME280;9383;50.928;12.116;2023-02-13T08:24:21;101026.88;;;2.98;100.00
18509;BME280;9383;50.928;12.116;2023-02-13T08:26:48;100960.41;;;2.65;100.00
18509;BME280;9383;50.928;12.116;2023-02-13T08:29:15;101035.00;;;3.07;100.00
18509;BME280;9383;50.928;12.116;2023-02-13T08:31:41;101036.66;;;3.03;100.00
18509;BME280;9383;50.928;12.116;2023-02-13T08:34:09;101038.38;;;3.03;100.00
18509;BME280;9383;50.928;12.116;2023-02-13T08:36:36;101034.09;;;3.06;100.00
18509;BME280;9383;50.928;12.116;2023-02-13T08:39:03;101039.50;;;3.11;100.00
18509;BME280;9383;50.928;12.116;2023-02-13T08:41:29;101039.69;;;3.17;100.00
18509;BME280;9383;50.928;12.116;2023-02-13T08:43:56;101046.88;;;3.24;100.00
18509;BME280;9383;50.928;12.116;2023-02-13T08:46:22;101034.69;;;3.27;100.00
18509;BME280;9383;50.928;12.116;2023-02-13T08:48:49;101034.69;;;3.27;100.00
18509;BME280;9383;50.928;12.116;2023-02-13T08:51:16;101040.00;;;3.28;100.00
18509;BME280;9383;50.928;12.116;2023-02-13T08:53:42;101029.50;;;3.28;100.00
18509;BME280;9383;50.928;12.116;2023-02-13T08:56:10;101038.38;;;3.33;100.00
18509;BME280;9383;50.928;12.116;2023-02-13T08:58:37;101043.63;;;3.33;100.00
18509;BME280;9383;50.928;12.116;2023-02-13T09:01:08;101032.41;;;3.39;100.00
18509;BME280;9383;50.928;12.116;2023-02-13T09:03:35;101036.78;;;3.38;100.00
18509;BME280;9383;50.928;12.116;2023-02-13T09:06:03;101035.16;;;3.42;100.00
18509;BME280;9383;50.928;12.116;2023-02-13T09:08:30;101031.56;;;3.40;100.00
18509;BME280;9383;50.928;12.116;2023-02-13T09:10:59;101037.78;;;3.42;100.00
18509;BME280;9383;50.928;12.116;2023-02-13T09:13:36;101042.25;;;3.46;100.00
18509;BME280;9383;50.928;12.116;2023-02-13T09:16:22;101040.59;;;3.50;100.00
18509;BME280;9383;50.928;12.116;2023-02-13T09:18:50;101033.66;;;3.52;100.00
18509;BME280;9383;50.928;12.116;2023-02-13T09:21:19;101031.97;;;3.54;100.00
18509;BME280;9383;50.928;12.116;2023-02-13T09:23:54;101038.19;;;3.58;100.00
18509;BME280;9383;50.928;12.116;2023-02-13T09:26:22;101036.38;;;3.55;100.00
18509;BME280;9383;50.928;12.116;2023-02-13T09:28:48;101037.41;;;3.62;100.00
18509;BME280;9383;50.928;12.116;2023-02-13T09:31:17;101034.03;;;3.66;100.00
18509;BME280;9383;50.928;12.116;2023-02-13T09:34:00;101031.53;;;3.71;100.00
18509;BME280;9383;50.928;12.116;2023-02-13T09:36:27;101029.97;;;3.77;100.00
18509;BME280;9383;50.928;12.116;2023-02-13T09:38:55;101036.13;;;3.78;100.00
18509;BME280;9383;50.928;12.116;2023-02-13T09:41:35;101037.75;;;3.74;100.00
18509;BME280;9383;50.928;12.116;2023-02-13T09:44:32;101036.06;;;3.76;100.00
18509;BME280;9383;50.928;12.116;2023-02-13T09:47:12;101046.59;;;3.78;100.00
18509;BME280;9383;50.928;12.116;2023-02-13T09:49:53;101051.16;;;3.85;100.00
18509;BME280;9383;50.928;12.116;2023-02-13T09:52:21;101045.28;;;3.94;100.00
18509;BME280;9383;50.928;12.116;2023-02-13T09:54:49;101056.84;;;4.02;100.00
18509;BME280;9383;50.928;12.116;2023-02-13T09:57:35;101058.00;;;4.12;100.00
18509;BME280;9383;50.928;12.116;2023-02-13T10:00:08;101059.13;;;4.22;100.00
18509;BME280;9383;50.928;12.116;2023-02-13T10:06:03;101049.66;;;4.29;100.00
18509;BME280;9383;50.928;12.116;2023-02-13T10:11:43;101041.22;;;4.42;100.00
18509;BME280;9383;50.928;12.116;2023-02-13T10:14:21;101048.50;;;4.54;100.00
18509;BME280;9383;50.928;12.116;2023-02-13T10:16:54;101046.91;;;4.61;100.00
18509;BME280;9383;50.928;12.116;2023-02-13T10:22:16;101045.69;;;4.83;100.00
18509;BME280;9383;50.928;12.116;2023-02-13T10:27:48;101048.75;;;5.03;100.00
18509;BME280;9383;50.928;12.116;2023-02-13T10:30:32;101040.22;;;5.15;100.00
18509;BME280;9383;50.928;12.116;2023-02-13T10:36:21;101043.25;;;5.34;100.00
18509;BME280;9383;50.928;12.116;2023-02-13T10:39:01;101037.25;;;5.41;100.00
18509;BME280;9383;50.928;12.116;2023-02-13T10:41:49;101040.06;;;5.51;100.00
18509;BME280;9383;50.928;12.116;2023-02-13T10:47:29;101036.00;;;5.67;100.00
18509;BME280;9383;50.928;12.116;2023-02-13T10:53:30;101017.81;;;5.81;100.00
18509;BME280;9383;50.928;12.116;2023-02-13T10:56:11;101013.56;;;5.87;100.00
18509;BME280;9383;50.928;12.116;2023-02-13T11:01:38;101012.03;;;6.00;100.00
18509;BME280;9383;50.928;12.116;2023-02-13T11:04:13;101009.53;;;6.07;100.00
18509;BME280;9383;50.928;12.116;2023-02-13T11:06:58;101009.66;;;6.13;100.00
18509;BME280;9383;50.928;12.116;2023-02-13T11:09:27;101006.22;;;6.18;100.00
18509;BME280;9383;50.928;12.116;2023-02-13T11:11:56;101001.03;;;6.23;100.00
18509;BME280;9383;50.928;12.116;2023-02-13T11:14:26;100995.84;;;6.28;100.00
18509;BME280;9383;50.928;12.116;2023-02-13T11:17:02;101001.13;;;6.29;100.00
18509;BME280;9383;50.928;12.116;2023-02-13T11:19:48;101001.19;;;6.34;100.00
18509;BME280;9383;50.928;12.116;2023-02-13T11:22:33;101003.91;;;6.39;100.00
18509;BME280;9383;50.928;12.116;2023-02-13T11:25:15;100998.69;;;6.42;100.00
18509;BME280;9383;50.928;12.116;2023-02-13T11:27:43;100987.34;;;6.46;100.00
18509;BME280;9383;50.928;12.116;2023-02-13T11:30:32;100992.69;;;6.52;100.00
18509;BME280;9383;50.928;12.116;2023-02-13T11:35:47;100992.81;;;6.58;100.00
18509;BME280;9383;50.928;12.116;2023-02-13T11:41:03;100991.94;;;6.59;100.00
18509;BME280;9383;50.928;12.116;2023-02-13T11:43:42;100991.16;;;6.65;100.00
18509;BME280;9383;50.928;12.116;2023-02-13T11:46:19;100986.78;;;6.69;100.00
18509;BME280;9383;50.928;12.116;2023-02-13T11:49:01;100984.22;;;6.72;100.00
18509;BME280;9383;50.928;12.116;2023-02-13T11:54:04;100976.38;;;6.77;100.00
18509;BME280;9383;50.928;12.116;2023-02-13T11:56:51;100968.44;;;6.75;100.00
18509;BME280;9383;50.928;12.116;2023-02-13T11:59:22;100968.47;;;6.78;100.00
18509;BME280;9383;50.928;12.116;2023-02-13T12:02:03;100968.50;;;6.81;100.00
18509;BME280;9383;50.928;12.116;2023-02-13T12:04:51;100973.84;;;6.86;100.00
18509;BME280;9383;50.928;12.116;2023-02-13T12:07:30;100976.56;;;6.92;100.00
18509;BME280;9383;50.928;12.116;2023-02-13T12:10:10;100971.34;;;6.98;100.00
18509;BME280;9383;50.928;12.116;2023-02-13T12:12:58;100969.66;;;7.02;100.00
18509;BME280;9383;50.928;12.116;2023-02-13T12:15:34;100963.53;;;7.04;100.00
18509;BME280;9383;50.928;12.116;2023-02-13T12:26:37;100968.91;;;7.12;100.00
18509;BME280;9383;50.928;12.116;2023-02-13T12:37:26;100981.31;;;7.21;100.00
18509;BME280;9383;50.928;12.116;2023-02-13T12:45:35;100963.75;;;7.26;99.85
18509;BME280;9383;50.928;12.116;2023-02-13T12:48:42;100958.53;;;7.31;99.87
18509;BME280;9383;50.928;12.116;2023-02-13T13:00:43;100945.47;;;7.40;98.55
18509;BME280;9383;50.928;12.116;2023-02-13T13:09:33;100942.81;;;7.40;96.72
18509;BME280;9383;50.928;12.116;2023-02-13T13:12:24;100941.94;;;7.41;96.47
18509;BME280;9383;50.928;12.116;2023-02-13T13:23:17;100933.19;;;7.44;96.58
18509;BME280;9383;50.928;12.116;2023-02-13T13:28:40;100930.53;;;7.45;97.58
18509;BME280;9383;50.928;12.116;2023-02-13T13:31:16;100928.88;;;7.52;97.58
18509;BME280;9383;50.928;12.116;2023-02-13T13:33:45;100924.53;;;7.57;98.06
18509;BME280;9383;50.928;12.116;2023-02-13T13:44:47;100921.19;;;7.79;98.30
18509;BME280;9383;50.928;12.116;2023-02-13T13:47:38;100924.72;;;7.79;97.83
18509;BME280;9383;50.928;12.116;2023-02-13T13:50:18;100912.34;;;7.75;97.59
18509;BME280;9383;50.928;12.116;2023-02-13T13:53:13;100917.63;;;7.75;97.13
18509;BME280;9383;50.928;12.116;2023-02-13T13:58:44;100916.75;;;7.76;96.07
18509;BME280;9383;50.928;12.116;2023-02-13T14:03:47;100910.50;;;7.63;95.58
18509;BME280;9383;50.928;12.116;2023-02-13T14:06:16;100894.63;;;7.60;94.76
18509;BME280;9383;50.928;12.116;2023-02-13T14:16:56;100908.72;;;7.64;93.09
18509;BME280;9383;50.928;12.116;2023-02-13T14:19:25;100909.63;;;7.64;93.32
18509;BME280;9383;50.928;12.116;2023-02-13T14:24:53;100914.88;;;7.61;93.16
18509;BME280;9383;50.928;12.116;2023-02-13T14:27:24;100901.63;;;7.56;92.87
18509;BME280;9383;50.928;12.116;2023-02-13T14:29:52;100899.84;;;7.54;92.83
18509;BME280;9383;50.928;12.116;2023-02-13T14:34:59;100897.16;;;7.48;92.44
18509;BME280;9383;50.928;12.116;2023-02-13T14:37:31;100897.09;;;7.44;92.34
18509;BME280;9383;50.928;12.116;2023-02-13T14:43:16;100894.44;;;7.38;92.44
18509;BME280;9383;50.928;12.116;2023-02-13T14:46:06;100888.22;;;7.35;91.97
18509;BME280;9383;50.928;12.116;2023-02-13T14:48:42;100890.78;;;7.27;91.57
18509;BME280;9383;50.928;12.116;2023-02-13T14:51:21;100890.75;;;7.22;91.55
18509;BME280;9383;50.928;12.116;2023-02-13T14:54:07;100886.31;;;7.20;91.64
18509;BME280;9383;50.928;12.116;2023-02-13T14:56:37;100883.66;;;7.16;92.21
18509;BME280;9383;50.928;12.116;2023-02-13T14:59:23;100873.94;;;7.12;92.15
18509;BME280;9383;50.928;12.116;2023-02-13T15:01:59;100875.66;;;7.09;92.41
18509;BME280;9383;50.928;12.116;2023-02-13T15:05:15;100880.00;;;7.05;92.16
18509;BME280;9383;50.928;12.116;2023-02-13T15:07:26;100877.34;;;7.02;92.56
18509;BME280;9383;50.928;12.116;2023-02-13T15:10:03;100888.72;;;6.96;92.84
18509;BME280;9383;50.928;12.116;2023-02-13T15:12:57;100887.72;;;6.88;92.38
18509;BME280;9383;50.928;12.116;2023-02-13T15:15:27;100889.47;;;6.84;92.16
18509;BME280;9383;50.928;12.116;2023-02-13T15:18:06;100878.84;;;6.80;92.58
18509;BME280;9383;50.928;12.116;2023-02-13T15:20:38;100884.03;;;6.73;92.30
18509;BME280;9383;50.928;12.116;2023-02-13T15:23:11;100880.44;;;6.67;92.23
18509;BME280;9383;50.928;12.116;2023-02-13T15:25:44;100878.66;;;6.63;92.79
18509;BME280;9383;50.928;12.116;2023-02-13T15:28:19;100883.88;;;6.59;93.07
18509;BME280;9383;50.928;12.116;2023-02-13T15:31:22;100878.56;;;6.55;93.09
18509;BME280;9383;50.928;12.116;2023-02-13T15:33:51;100882.84;;;6.50;92.87
18509;BME280;9383;50.928;12.116;2023-02-13T15:36:24;100887.22;;;6.46;92.75
18509;BME280;9383;50.928;12.116;2023-02-13T15:39:00;100876.63;;;6.41;93.11
18509;BME280;9383;50.928;12.116;2023-02-13T15:41:35;100877.41;;;6.36;93.43
18509;BME280;9383;50.928;12.116;2023-02-13T15:44:12;100868.56;;;6.30;92.90
18509;BME280;9383;50.928;12.116;2023-02-13T15:46:41;100871.97;;;6.25;93.01
18509;BME280;9383;50.928;12.116;2023-02-13T15:49:15;100873.66;;;6.18;93.45
18509;BME280;9383;50.928;12.116;2023-02-13T15:51:43;100872.72;;;6.13;94.00
18509;BME280;9383;50.928;12.116;2023-02-13T15:54:32;100868.22;;;6.07;94.03